createdAt,value
2019-02-12T00:02:13.792Z,1.30
2019-02-12T00:04:42.207Z,1.17
2019-02-12T00:07:10.656Z,1.00
2019-02-12T00:09:39.106Z,1.30
2019-02-12T00:12:07.543Z,1.00
2019-02-12T00:14:35.999Z,1.20
2019-02-12T00:17:04.495Z,1.10
2019-02-12T00:19:32.943Z,1.00
2019-02-12T00:22:01.400Z,1.40
2019-02-12T00:24:29.857Z,0.90
2019-02-12T00:26:58.365Z,1.00
2019-02-12T00:29:26.810Z,0.80
2019-02-12T00:31:55.246Z,1.10
2019-02-12T00:34:23.698Z,1.00
2019-02-12T00:36:52.130Z,0.90
2019-02-12T00:39:20.582Z,1.53
2019-02-12T00:41:49.025Z,1.00
2019-02-12T00:44:17.478Z,0.87
2019-02-12T00:46:45.914Z,1.20
2019-02-12T00:49:14.378Z,1.00
2019-02-12T00:51:42.816Z,0.90
2019-02-12T00:54:11.278Z,0.70
2019-02-12T00:56:39.722Z,0.87
2019-02-12T00:59:08.185Z,0.60
2019-02-12T01:01:36.616Z,1.27
2019-02-12T01:04:05.076Z,1.30
2019-02-12T01:06:33.565Z,1.20
2019-02-12T01:09:02.073Z,0.73
2019-02-12T01:11:30.554Z,1.30
2019-02-12T01:13:59.129Z,0.97
2019-02-12T01:16:27.590Z,0.70
2019-02-12T01:18:56.042Z,0.80
2019-02-12T01:21:26.258Z,0.77
2019-02-12T01:23:55.012Z,1.20
2019-02-12T01:26:23.455Z,1.57
2019-02-12T01:28:51.907Z,0.80
2019-02-12T01:31:20.339Z,0.90
2019-02-12T01:33:48.777Z,0.80
2019-02-12T01:36:17.226Z,1.10
2019-02-12T01:38:45.669Z,0.83
2019-02-12T01:41:14.181Z,1.17
2019-02-12T01:43:42.612Z,0.90
2019-02-12T01:46:11.074Z,0.70
2019-02-12T01:48:39.497Z,1.10
2019-02-12T01:51:07.949Z,0.73
2019-02-12T01:53:36.379Z,0.67
2019-02-12T01:56:04.823Z,0.93
2019-02-12T01:58:33.259Z,1.13
2019-02-12T02:01:01.774Z,0.70
2019-02-12T02:03:30.211Z,0.90
2019-02-12T02:05:58.653Z,0.53
2019-02-12T02:08:27.091Z,1.00
2019-02-12T02:10:55.534Z,1.50
2019-02-12T02:13:24.038Z,0.70
2019-02-12T02:15:52.496Z,1.30
2019-02-12T02:18:20.933Z,0.90
2019-02-12T02:20:49.377Z,1.03
2019-02-12T02:23:17.806Z,0.90
2019-02-12T02:25:46.255Z,0.90
2019-02-12T02:28:14.679Z,0.70
2019-02-12T02:30:43.131Z,0.70
2019-02-12T02:33:11.577Z,1.00
2019-02-12T02:35:40.036Z,0.97
2019-02-12T02:38:08.457Z,0.63
2019-02-12T02:40:36.898Z,0.70
2019-02-12T02:43:05.333Z,0.60
2019-02-12T02:45:33.779Z,0.37
2019-02-12T02:48:02.218Z,0.87
2019-02-12T02:50:30.663Z,0.63
2019-02-12T02:52:59.103Z,0.57
2019-02-12T02:55:27.550Z,0.67
2019-02-12T02:57:56.478Z,0.83
2019-02-12T03:00:24.918Z,0.80
2019-02-12T03:02:53.351Z,0.80
2019-02-12T03:05:21.876Z,0.83
2019-02-12T03:07:50.313Z,0.70
2019-02-12T03:10:18.767Z,0.67
2019-02-12T03:12:47.204Z,0.60
2019-02-12T03:15:15.647Z,0.53
2019-02-12T03:17:44.089Z,0.70
2019-02-12T03:20:12.702Z,0.40
2019-02-12T03:22:41.138Z,0.67
2019-02-12T03:25:10.358Z,0.43
2019-02-12T03:27:39.063Z,0.67
2019-02-12T03:30:12.631Z,0.30
2019-02-12T03:32:41.326Z,0.30
2019-02-12T03:35:10.520Z,0.40
2019-02-12T03:37:38.983Z,0.43
2019-02-12T03:40:10.177Z,0.60
2019-02-12T03:42:38.595Z,0.67
2019-02-12T03:45:09.878Z,0.70
2019-02-12T03:47:38.316Z,0.60
2019-02-12T03:50:09.085Z,0.67
2019-02-12T03:52:37.517Z,0.57
2019-02-12T03:55:09.009Z,0.60
2019-02-12T03:57:37.517Z,0.47
2019-02-12T04:00:09.051Z,0.77
2019-02-12T04:02:37.663Z,1.00
2019-02-12T04:05:07.733Z,0.90
2019-02-12T04:07:36.167Z,0.70
2019-02-12T04:10:05.957Z,0.80
2019-02-12T04:12:34.391Z,0.53
2019-02-12T04:15:02.866Z,1.00
2019-02-12T04:17:31.351Z,0.67
2019-02-12T04:19:59.801Z,0.83
2019-02-12T04:22:28.230Z,0.43
2019-02-12T04:24:56.737Z,0.70
2019-02-12T04:27:25.170Z,0.70
2019-02-12T04:29:53.617Z,0.63
2019-02-12T04:32:22.049Z,0.77
2019-02-12T04:34:50.504Z,0.60
2019-02-12T04:37:18.934Z,0.57
2019-02-12T04:39:47.382Z,0.60
2019-02-12T04:42:15.811Z,0.70
2019-02-12T04:44:44.271Z,0.57
2019-02-12T04:47:12.701Z,0.67
2019-02-12T04:49:41.138Z,0.60
2019-02-12T04:52:09.574Z,0.60
2019-02-12T04:54:38.002Z,0.57
2019-02-12T04:57:06.454Z,0.53
2019-02-12T04:59:34.882Z,0.80
2019-02-12T05:02:03.324Z,0.70
2019-02-12T05:04:31.769Z,0.60
2019-02-12T05:07:00.290Z,0.63
2019-02-12T05:09:31.256Z,0.90
2019-02-12T05:11:59.706Z,0.50
2019-02-12T05:14:28.146Z,0.90
2019-02-12T05:16:56.596Z,0.70
2019-02-12T05:19:25.069Z,0.77
2019-02-12T05:21:53.555Z,0.60
2019-02-12T05:24:21.987Z,0.70
2019-02-12T05:26:50.442Z,1.27
2019-02-12T05:29:18.867Z,0.43
2019-02-12T05:31:47.312Z,0.90
2019-02-12T05:34:15.739Z,0.80
2019-02-12T05:36:44.196Z,0.60
2019-02-12T05:39:12.622Z,0.80
2019-02-12T05:41:41.071Z,0.60
2019-02-12T05:44:09.516Z,0.90
2019-02-12T05:46:37.967Z,0.93
2019-02-12T05:49:06.396Z,0.80
2019-02-12T05:51:34.843Z,0.83
2019-02-12T05:54:03.274Z,0.80
2019-02-12T05:56:31.718Z,0.80
2019-02-12T05:59:00.151Z,0.90
2019-02-12T06:01:28.672Z,0.90
2019-02-12T06:03:57.106Z,0.87
2019-02-12T06:06:25.567Z,0.87
2019-02-12T06:08:53.994Z,1.10
2019-02-12T06:11:22.445Z,0.90
2019-02-12T06:13:50.880Z,1.10
2019-02-12T06:16:19.349Z,0.80
2019-02-12T06:18:47.841Z,0.80
2019-02-12T06:21:16.309Z,0.90
2019-02-12T06:23:44.809Z,0.73
2019-02-12T06:26:13.531Z,0.93
2019-02-12T06:28:41.962Z,1.10
2019-02-12T06:31:10.418Z,0.90
2019-02-12T06:33:38.858Z,1.10
2019-02-12T06:36:07.293Z,1.00
2019-02-12T06:38:35.802Z,0.80
2019-02-12T06:41:04.257Z,1.10
2019-02-12T06:43:32.696Z,1.30
2019-02-12T06:46:01.151Z,1.60
2019-02-12T06:48:29.638Z,1.10
2019-02-12T06:50:58.096Z,1.40
2019-02-12T06:53:26.534Z,1.40
2019-02-12T06:55:54.974Z,1.30
2019-02-12T06:58:23.402Z,1.37
2019-02-12T07:00:51.930Z,0.93
2019-02-12T07:03:22.203Z,1.47
2019-02-12T07:05:53.716Z,1.20
2019-02-12T07:08:52.194Z,1.00
2019-02-12T07:11:23.727Z,1.07
2019-02-12T07:13:58.099Z,0.90
2019-02-12T07:16:47.698Z,1.30
2019-02-12T07:19:21.761Z,1.13
2019-02-12T07:22:12.450Z,1.00
2019-02-12T07:24:52.494Z,0.97
2019-02-12T07:27:32.621Z,1.40
2019-02-12T07:30:09.439Z,1.10
2019-02-12T07:32:43.905Z,1.30
2019-02-12T07:35:31.586Z,1.17
2019-02-12T07:38:28.526Z,1.07
2019-02-12T07:41:29.875Z,1.00
2019-02-12T07:44:03.930Z,1.50
2019-02-12T07:46:40.951Z,1.27
2019-02-12T07:49:21.022Z,1.50
2019-02-12T07:52:04.144Z,2.00
2019-02-12T07:54:41.273Z,1.73
2019-02-12T07:57:39.779Z,2.30
2019-02-12T08:00:27.453Z,1.47
2019-02-12T08:03:01.816Z,1.37
2019-02-12T08:05:49.651Z,2.10
2019-02-12T08:08:24.074Z,1.60
2019-02-12T08:11:01.497Z,1.77
2019-02-12T08:13:35.685Z,1.73
2019-02-12T08:16:12.919Z,1.60
2019-02-12T08:19:05.189Z,1.97
2019-02-12T08:21:36.724Z,1.73
2019-02-12T08:24:19.857Z,2.10
2019-02-12T08:26:59.745Z,2.13
2019-02-12T08:29:53.643Z,1.80
2019-02-12T08:32:45.757Z,2.10
2019-02-12T08:35:44.217Z,2.20
2019-02-12T08:38:36.391Z,2.03
2019-02-12T08:41:19.784Z,2.20
2019-02-12T08:44:00.311Z,2.13
2019-02-12T08:46:53.248Z,2.17
2019-02-12T08:49:36.515Z,1.50
2019-02-12T08:52:32.010Z,1.70
2019-02-12T08:55:20.998Z,1.57
2019-02-12T08:58:01.049Z,2.00
2019-02-12T09:00:35.186Z,1.90
2019-02-12T09:03:23.012Z,1.60
2019-02-12T09:06:03.956Z,1.63
2019-02-12T09:08:50.302Z,1.50
2019-02-12T09:11:42.522Z,1.70
2019-02-12T09:14:16.821Z,1.60
2019-02-12T09:17:06.230Z,1.30
2019-02-12T09:19:40.426Z,1.30
2019-02-12T09:22:32.404Z,1.50
2019-02-12T09:25:12.510Z,1.00
2019-02-12T09:27:44.053Z,1.00
2019-02-12T09:30:47.072Z,0.70
2019-02-12T09:33:36.604Z,0.97
2019-02-12T09:36:22.627Z,1.00
2019-02-12T09:38:59.643Z,1.43
2019-02-12T09:41:51.790Z,1.70
2019-02-12T09:44:32.022Z,1.07
2019-02-12T09:47:34.868Z,1.17
2019-02-12T09:50:06.407Z,1.10
2019-02-12T09:53:09.197Z,1.83
2019-02-12T09:55:46.404Z,1.33
2019-02-12T09:58:43.231Z,1.80
2019-02-12T10:01:17.671Z,1.77
2019-02-12T10:04:01.031Z,1.23
2019-02-12T10:06:41.271Z,1.43
2019-02-12T10:09:32.241Z,1.63
2019-02-12T10:12:09.416Z,1.60
2019-02-12T10:15:01.718Z,2.07
2019-02-12T10:17:51.023Z,1.43
2019-02-12T10:20:25.487Z,1.60
2019-02-12T10:23:02.795Z,1.80
2019-02-12T10:25:31.230Z,1.90
2019-02-12T10:28:19.006Z,1.47
2019-02-12T10:31:02.208Z,1.50
2019-02-12T10:33:30.727Z,1.30
2019-02-12T10:35:59.239Z,1.60
2019-02-12T10:38:27.762Z,1.77
2019-02-12T10:40:56.203Z,1.40
2019-02-12T10:43:24.747Z,1.30
2019-02-12T10:45:53.225Z,1.43
2019-02-12T10:48:21.668Z,1.43
2019-02-12T10:50:50.114Z,1.20
2019-02-12T10:53:18.615Z,2.13
2019-02-12T10:55:47.088Z,1.63
2019-02-12T10:58:15.543Z,1.80
2019-02-12T11:00:44.049Z,1.50
2019-02-12T11:03:12.506Z,1.50
2019-02-12T11:05:40.937Z,1.40
2019-02-12T11:08:09.390Z,1.10
2019-02-12T11:10:37.836Z,1.20
2019-02-12T11:13:06.352Z,1.57
2019-02-12T11:15:34.882Z,1.40
2019-02-12T11:18:03.379Z,1.03
2019-02-12T11:20:31.897Z,1.30
2019-02-12T11:23:00.318Z,1.00
2019-02-12T11:25:28.783Z,1.40
2019-02-12T11:27:57.211Z,1.23
2019-02-12T11:30:25.661Z,1.30
2019-02-12T11:32:54.106Z,1.17
2019-02-12T11:35:22.566Z,1.40
2019-02-12T11:37:51.002Z,1.00
2019-02-12T11:40:19.462Z,0.93
2019-02-12T11:42:47.964Z,1.13
2019-02-12T11:45:16.494Z,0.90
2019-02-12T11:47:44.924Z,1.00
2019-02-12T11:50:13.447Z,1.40
2019-02-12T11:52:41.880Z,0.80
2019-02-12T11:55:13.411Z,1.40
2019-02-12T11:57:41.909Z,0.90
2019-02-12T12:00:24.401Z,1.30
2019-02-12T12:02:52.833Z,1.33
2019-02-12T12:05:21.299Z,1.67
2019-02-12T12:07:49.724Z,2.23
2019-02-12T12:10:18.183Z,1.80
2019-02-12T12:12:46.619Z,2.43
2019-02-12T12:15:15.852Z,2.27
2019-02-12T12:17:44.430Z,1.80
2019-02-12T12:20:14.775Z,2.00
2019-02-12T12:22:43.222Z,2.30
2019-02-12T12:25:12.839Z,2.30
2019-02-12T12:27:41.371Z,2.57
2019-02-12T12:30:12.331Z,2.17
2019-02-12T12:32:40.837Z,1.90
2019-02-12T12:35:10.705Z,2.03
2019-02-12T12:37:39.245Z,2.47
2019-02-12T12:40:09.914Z,2.30
2019-02-12T12:42:38.361Z,2.60
2019-02-12T12:45:14.099Z,2.33
2019-02-12T12:47:42.621Z,2.37
2019-02-12T12:50:12.500Z,2.00
2019-02-12T12:52:40.947Z,2.00
2019-02-12T12:55:10.122Z,1.77
2019-02-12T12:57:41.999Z,1.60
2019-02-12T13:00:14.219Z,1.50
2019-02-12T13:02:42.825Z,1.80
2019-02-12T13:05:11.319Z,1.87
2019-02-12T13:07:39.835Z,1.07
2019-02-12T13:10:13.555Z,1.30
2019-02-12T13:12:42.980Z,1.47
2019-02-12T13:15:13.113Z,1.60
2019-02-12T13:17:41.576Z,1.20
2019-02-12T13:20:12.456Z,1.33
2019-02-12T13:22:40.905Z,1.00
2019-02-12T13:25:10.178Z,1.00
2019-02-12T13:27:38.625Z,1.50
2019-02-12T13:30:15.127Z,1.33
2019-02-12T13:32:43.577Z,1.63
2019-02-12T13:35:12.355Z,1.53
2019-02-12T13:37:40.808Z,1.20
2019-02-12T13:40:11.178Z,1.10
2019-02-12T13:42:39.689Z,1.40
2019-02-12T13:45:10.645Z,1.63
2019-02-12T13:47:39.098Z,1.73
2019-02-12T13:50:08.872Z,1.30
2019-02-12T13:52:37.330Z,1.30
2019-02-12T13:55:15.453Z,1.10
2019-02-12T13:57:38.174Z,1.17
2019-02-12T14:00:13.340Z,1.70
2019-02-12T14:02:41.785Z,1.23
2019-02-12T14:05:15.878Z,1.00
2019-02-12T14:07:44.373Z,1.10
2019-02-12T14:10:12.885Z,1.30
2019-02-12T14:12:41.349Z,1.23
2019-02-12T14:15:12.200Z,1.17
2019-02-12T14:17:40.738Z,1.07
2019-02-12T14:20:14.615Z,0.90
2019-02-12T14:22:43.057Z,1.20
2019-02-12T14:25:15.134Z,1.40
2019-02-12T14:27:43.671Z,1.00
2019-02-12T14:30:14.115Z,1.17
2019-02-12T14:32:42.568Z,1.20
2019-02-12T14:35:12.239Z,0.87
2019-02-12T14:37:40.763Z,1.00
2019-02-12T14:40:11.141Z,0.90
2019-02-12T14:42:39.594Z,1.20
2019-02-12T14:45:16.796Z,0.97
2019-02-12T14:47:45.305Z,1.23
2019-02-12T14:50:14.900Z,1.00
2019-02-12T14:52:43.397Z,1.27
2019-02-12T14:55:11.842Z,1.20
2019-02-12T14:57:40.287Z,1.20
2019-02-12T15:00:19.024Z,1.27
2019-02-12T15:02:47.495Z,1.00
2019-02-12T15:05:16.083Z,1.60
2019-02-12T15:07:44.537Z,1.63
2019-02-12T15:10:14.242Z,1.60
2019-02-12T15:12:42.736Z,1.50
2019-02-12T15:15:11.442Z,1.80
2019-02-12T15:17:39.869Z,1.47
2019-02-12T15:20:10.462Z,1.30
2019-02-12T15:22:38.908Z,1.37
2019-02-12T15:25:10.066Z,1.20
2019-02-12T15:27:38.495Z,1.40
2019-02-12T15:30:17.446Z,1.60
2019-02-12T15:32:45.890Z,1.53
2019-02-12T15:35:14.420Z,1.10
2019-02-12T15:37:42.923Z,1.50
2019-02-12T15:40:13.534Z,1.40
2019-02-12T15:42:42.032Z,1.20
2019-02-12T15:45:19.298Z,1.53
2019-02-12T15:47:47.791Z,1.50
2019-02-12T15:50:16.330Z,1.30
2019-02-12T15:52:45.185Z,1.40
2019-02-12T15:55:14.239Z,1.53
2019-02-12T15:57:45.606Z,1.50
2019-02-12T16:00:20.714Z,1.60
2019-02-12T16:02:49.412Z,1.60
2019-02-12T16:05:17.872Z,1.47
2019-02-12T16:07:47.382Z,1.40
2019-02-12T16:10:20.471Z,1.00
2019-02-12T16:12:51.356Z,1.13
2019-02-12T16:15:23.855Z,1.20
2019-02-12T16:17:50.161Z,1.30
2019-02-12T16:20:18.723Z,1.33
2019-02-12T16:22:47.168Z,0.97
2019-02-12T16:25:15.711Z,1.17
2019-02-12T16:27:44.249Z,1.07
2019-02-12T16:30:17.198Z,1.30
2019-02-12T16:32:45.758Z,1.37
2019-02-12T16:35:15.784Z,1.30
2019-02-12T16:37:44.454Z,1.80
2019-02-12T16:40:14.251Z,1.67
2019-02-12T16:42:42.687Z,1.77
2019-02-12T16:45:17.490Z,1.43
2019-02-12T16:47:46.147Z,1.50
2019-02-12T16:50:14.689Z,1.43
2019-02-12T16:52:43.140Z,1.70
2019-02-12T16:55:11.669Z,2.10
2019-02-12T16:57:40.147Z,1.50
2019-02-12T17:00:11.574Z,1.70
2019-02-12T17:02:40.011Z,2.60
2019-02-12T17:05:10.612Z,1.37
2019-02-12T17:07:39.059Z,1.57
2019-02-12T17:10:09.673Z,1.53
2019-02-12T17:12:38.192Z,1.60
2019-02-12T17:15:11.346Z,2.03
2019-02-12T17:17:39.865Z,2.30
2019-02-12T17:20:16.585Z,2.30
2019-02-12T17:22:45.227Z,2.10
2019-02-12T17:25:14.127Z,1.90
2019-02-12T17:27:42.658Z,1.67
2019-02-12T17:30:17.777Z,2.10
2019-02-12T17:32:46.286Z,1.80
2019-02-12T17:35:14.819Z,2.10
2019-02-12T17:37:43.254Z,1.80
2019-02-12T17:40:20.608Z,1.97
2019-02-12T17:42:49.119Z,1.93
2019-02-12T17:45:20.651Z,2.00
2019-02-12T17:47:49.094Z,1.97
2019-02-12T17:50:17.547Z,1.83
2019-02-12T17:52:45.990Z,1.60
2019-02-12T17:55:14.484Z,1.63
2019-02-12T17:57:42.906Z,1.83
2019-02-12T18:00:23.140Z,1.83
2019-02-12T18:02:51.580Z,2.10
2019-02-12T18:05:20.169Z,2.10
2019-02-12T18:07:48.613Z,2.53
2019-02-12T18:10:17.072Z,1.90
2019-02-12T18:12:45.507Z,2.40
2019-02-12T18:15:15.052Z,1.67
2019-02-12T18:17:43.617Z,1.73
2019-02-12T18:20:14.193Z,1.80
2019-02-12T18:22:42.624Z,1.70
2019-02-12T18:25:11.351Z,1.97
2019-02-12T18:27:40.736Z,2.20
2019-02-12T18:30:15.485Z,1.80
2019-02-12T18:32:44.004Z,1.90
2019-02-12T18:35:13.605Z,2.00
2019-02-12T18:37:42.764Z,2.67
2019-02-12T18:40:18.148Z,1.80
2019-02-12T18:42:46.729Z,2.50
2019-02-12T18:45:22.561Z,2.50
2019-02-12T18:47:51.004Z,2.50
2019-02-12T18:50:19.728Z,2.10
2019-02-12T18:52:48.237Z,2.30
2019-02-12T18:55:17.039Z,2.40
2019-02-12T18:57:45.509Z,2.60
2019-02-12T19:00:19.730Z,2.60
2019-02-12T19:02:48.158Z,2.63
2019-02-12T19:05:16.684Z,2.57
2019-02-12T19:07:45.228Z,4.03
2019-02-12T19:10:15.286Z,3.50
2019-02-12T19:12:43.757Z,3.20
2019-02-12T19:15:14.115Z,3.50
2019-02-12T19:17:44.108Z,2.83
2019-02-12T19:20:14.288Z,4.00
2019-02-12T19:22:42.756Z,3.40
2019-02-12T19:25:11.462Z,3.50
2019-02-12T19:27:39.934Z,2.80
2019-02-12T19:30:11.574Z,2.90
2019-02-12T19:32:40.109Z,2.97
2019-02-12T19:35:10.301Z,2.73
2019-02-12T19:37:38.824Z,2.60
2019-02-12T19:40:11.410Z,2.90
2019-02-12T19:42:40.024Z,2.83
2019-02-12T19:45:14.198Z,3.20
2019-02-12T19:47:42.783Z,2.87
2019-02-12T19:50:11.883Z,2.50
2019-02-12T19:52:40.364Z,2.90
2019-02-12T19:55:09.531Z,2.90
2019-02-12T19:57:38.041Z,2.80
2019-02-12T20:00:20.609Z,3.20
2019-02-12T20:02:50.233Z,3.33
2019-02-12T20:05:19.265Z,4.07
2019-02-12T20:07:47.822Z,3.47
2019-02-12T20:10:16.348Z,3.17
2019-02-12T20:12:44.931Z,3.40
2019-02-12T20:15:20.789Z,2.70
2019-02-12T20:17:49.259Z,2.90
2019-02-12T20:20:17.713Z,6.37
2019-02-12T20:22:46.253Z,4.23
2019-02-12T20:25:14.782Z,3.30
2019-02-12T20:27:43.452Z,4.20
2019-02-12T20:30:13.902Z,4.67
2019-02-12T20:32:42.422Z,4.53
2019-02-12T20:35:17.031Z,5.23
2019-02-12T20:37:45.563Z,4.30
2019-02-12T20:40:14.550Z,5.40
2019-02-12T20:42:43.091Z,4.80
2019-02-12T20:45:14.612Z,4.90
2019-02-12T20:47:43.084Z,4.90
2019-02-12T20:50:13.695Z,4.77
2019-02-12T20:52:42.180Z,4.63
2019-02-12T20:55:11.767Z,4.30
2019-02-12T20:57:40.317Z,4.60
2019-02-12T21:00:25.242Z,4.13
2019-02-12T21:02:53.765Z,4.53
2019-02-12T21:05:22.269Z,5.50
2019-02-12T21:07:50.724Z,4.07
2019-02-12T21:10:20.451Z,4.20
2019-02-12T21:12:49.116Z,4.07
2019-02-12T21:15:22.006Z,4.40
2019-02-12T21:17:50.484Z,4.10
2019-02-12T21:20:19.008Z,5.07
2019-02-12T21:22:47.480Z,5.23
2019-02-12T21:25:15.997Z,4.57
2019-02-12T21:27:44.456Z,4.50
2019-02-12T21:30:24.370Z,4.33
2019-02-12T21:32:52.816Z,4.43
2019-02-12T21:35:21.255Z,4.97
2019-02-12T21:37:49.731Z,5.20
2019-02-12T21:40:25.656Z,4.77
2019-02-12T21:42:54.183Z,6.00
2019-02-12T21:45:22.634Z,6.53
2019-02-12T21:47:51.118Z,6.47
2019-02-12T21:50:19.611Z,5.07
2019-02-12T21:52:48.071Z,6.00
2019-02-12T21:55:20.894Z,4.93
2019-02-12T21:57:49.422Z,5.03
2019-02-12T22:00:19.199Z,4.73
2019-02-12T22:02:47.825Z,5.00
2019-02-12T22:05:16.955Z,5.50
2019-02-12T22:07:45.563Z,5.00
2019-02-12T22:10:27.685Z,4.90
2019-02-12T22:12:56.154Z,6.93
2019-02-12T22:15:24.632Z,5.90
2019-02-12T22:17:53.122Z,6.00
2019-02-12T22:20:22.793Z,5.60
2019-02-12T22:22:51.248Z,5.07
2019-02-12T22:25:19.682Z,5.30
2019-02-12T22:27:48.249Z,5.67
2019-02-12T22:30:21.267Z,5.83
2019-02-12T22:32:49.725Z,5.70
2019-02-12T22:35:18.262Z,5.47
2019-02-12T22:37:46.711Z,5.17
2019-02-12T22:40:16.303Z,5.90
2019-02-12T22:42:44.881Z,6.63
2019-02-12T22:45:20.643Z,5.27
2019-02-12T22:47:49.090Z,5.20
2019-02-12T22:50:17.533Z,4.90
2019-02-12T22:52:45.981Z,5.10
2019-02-12T22:55:14.666Z,5.90
2019-02-12T22:57:48.879Z,6.10
2019-02-12T23:00:22.817Z,5.07
2019-02-12T23:02:51.346Z,4.77
2019-02-12T23:05:19.955Z,5.23
2019-02-12T23:07:48.413Z,4.43
2019-02-12T23:10:16.933Z,4.73
2019-02-12T23:12:45.447Z,4.57
2019-02-12T23:15:13.885Z,4.63
2019-02-12T23:17:42.343Z,4.20
2019-02-12T23:20:10.774Z,4.07
2019-02-12T23:22:39.305Z,4.63
2019-02-12T23:25:07.781Z,4.70
2019-02-12T23:27:36.266Z,4.57
2019-02-12T23:30:07.307Z,4.70
2019-02-12T23:32:35.796Z,4.00
2019-02-12T23:35:05.286Z,4.60
2019-02-12T23:37:33.762Z,4.37
2019-02-12T23:40:02.216Z,4.47
2019-02-12T23:42:30.670Z,5.13
2019-02-12T23:44:59.110Z,5.20
2019-02-12T23:47:27.584Z,5.10
2019-02-12T23:49:56.026Z,5.17
2019-02-12T23:52:24.481Z,4.80
2019-02-12T23:54:52.918Z,5.20
2019-02-12T23:57:21.448Z,5.83
2019-02-12T23:59:49.878Z,5.43
